createdAt,value
2019-05-18T00:01:32.640Z,99.99
2019-05-18T00:01:59.413Z,99.99
2019-05-18T00:02:59.393Z,99.99
2019-05-18T00:03:59.375Z,99.99
2019-05-18T00:04:59.358Z,99.99
2019-05-18T00:05:59.342Z,99.99
2019-05-18T00:06:59.324Z,99.99
2019-05-18T00:07:59.305Z,99.99
2019-05-18T00:08:59.271Z,99.99
2019-05-18T00:09:59.248Z,99.99
2019-05-18T00:10:59.233Z,99.99
2019-05-18T00:11:59.212Z,99.99
2019-05-18T00:12:59.194Z,99.99
2019-05-18T00:13:59.180Z,99.99
2019-05-18T00:14:59.156Z,99.99
2019-05-18T00:15:59.138Z,99.99
2019-05-18T00:16:59.125Z,99.99
2019-05-18T00:17:59.104Z,99.99
2019-05-18T00:18:59.087Z,99.99
2019-05-18T00:19:59.069Z,99.99
2019-05-18T00:20:59.048Z,99.99
2019-05-18T00:21:59.030Z,99.99
2019-05-18T00:22:59.015Z,99.99
2019-05-18T00:23:59.004Z,99.99
2019-05-18T00:24:58.989Z,99.99
2019-05-18T00:25:58.958Z,99.99
2019-05-18T00:26:58.942Z,99.99
2019-05-18T00:27:58.920Z,99.99
2019-05-18T00:28:58.903Z,99.99
2019-05-18T00:29:58.883Z,99.99
2019-05-18T00:30:58.868Z,99.99
2019-05-18T00:31:58.848Z,99.99
2019-05-18T00:32:58.831Z,99.99
2019-05-18T00:33:58.817Z,99.99
2019-05-18T00:34:58.793Z,99.99
2019-05-18T00:35:58.775Z,99.99
2019-05-18T00:36:58.760Z,99.99
2019-05-18T00:37:58.742Z,99.99
2019-05-18T00:38:58.726Z,99.99
2019-05-18T00:39:58.705Z,99.99
2019-05-18T00:40:58.684Z,99.99
2019-05-18T00:41:58.667Z,99.99
2019-05-18T00:42:58.655Z,99.99
2019-05-18T00:43:58.630Z,99.99
2019-05-18T00:44:58.624Z,99.99
2019-05-18T00:45:58.594Z,99.99
2019-05-18T00:46:58.577Z,99.99
2019-05-18T00:47:58.557Z,99.99
2019-05-18T00:48:58.538Z,99.99
2019-05-18T00:49:58.519Z,99.99
2019-05-18T00:50:58.501Z,99.99
2019-05-18T00:51:58.485Z,99.99
2019-05-18T00:52:58.465Z,99.99
2019-05-18T00:53:58.448Z,99.99
2019-05-18T00:54:58.428Z,99.99
2019-05-18T00:55:58.417Z,99.99
2019-05-18T00:56:58.393Z,99.99
2019-05-18T00:57:58.374Z,99.99
2019-05-18T00:58:58.374Z,99.99
2019-05-18T00:59:58.341Z,99.99
2019-05-18T01:00:58.324Z,99.99
2019-05-18T01:01:58.303Z,99.99
2019-05-18T01:02:58.285Z,99.99
2019-05-18T01:03:58.265Z,99.99
2019-05-18T01:04:58.255Z,99.99
2019-05-18T01:05:58.231Z,99.99
2019-05-18T01:06:58.215Z,99.99
2019-05-18T01:07:58.192Z,99.99
2019-05-18T01:08:58.174Z,99.99
2019-05-18T01:09:58.157Z,99.99
2019-05-18T01:10:58.140Z,99.99
2019-05-18T01:11:58.119Z,99.99
2019-05-18T01:12:58.106Z,99.99
2019-05-18T01:13:58.081Z,99.99
2019-05-18T01:14:58.067Z,99.99
2019-05-18T01:15:58.045Z,99.99
2019-05-18T01:16:58.030Z,99.99
2019-05-18T01:18:01.433Z,99.99
2019-05-18T01:18:57.990Z,99.99
2019-05-18T01:19:57.979Z,99.99
2019-05-18T01:20:57.960Z,99.99
2019-05-18T01:21:57.939Z,99.99
2019-05-18T01:22:57.919Z,99.99
2019-05-18T01:23:57.899Z,99.99
2019-05-18T01:24:57.880Z,99.99
2019-05-18T01:25:57.865Z,99.99
2019-05-18T01:26:57.843Z,99.99
2019-05-18T01:27:57.825Z,99.99
2019-05-18T01:28:57.808Z,99.99
2019-05-18T01:29:57.791Z,99.99
2019-05-18T01:30:57.770Z,99.99
2019-05-18T01:31:57.752Z,99.99
2019-05-18T01:32:57.733Z,99.99
2019-05-18T01:33:57.717Z,99.99
2019-05-18T01:34:57.696Z,99.99
2019-05-18T01:35:57.682Z,99.99
2019-05-18T01:36:57.662Z,99.99
2019-05-18T01:37:57.641Z,99.99
2019-05-18T01:38:57.627Z,99.99
2019-05-18T01:39:57.605Z,99.99
2019-05-18T01:40:57.591Z,99.99
2019-05-18T01:41:57.570Z,99.99
2019-05-18T01:42:57.551Z,99.99
2019-05-18T01:43:57.531Z,99.99
2019-05-18T01:44:57.515Z,99.99
2019-05-18T01:45:57.494Z,99.99
2019-05-18T01:46:57.477Z,99.99
2019-05-18T01:48:12.287Z,99.99
2019-05-18T01:48:57.442Z,99.99
2019-05-18T01:49:57.425Z,99.99
2019-05-18T01:50:57.406Z,99.99
2019-05-18T01:51:57.387Z,99.99
2019-05-18T01:52:57.367Z,99.99
2019-05-18T01:53:57.347Z,99.99
2019-05-18T01:54:57.332Z,99.99
2019-05-18T01:55:57.310Z,99.99
2019-05-18T01:56:57.293Z,99.99
2019-05-18T01:57:57.274Z,99.99
2019-05-18T01:58:57.259Z,99.99
2019-05-18T01:59:57.239Z,99.99
2019-05-18T02:00:57.218Z,99.99
2019-05-18T02:01:57.211Z,99.99
2019-05-18T02:02:57.184Z,99.99
2019-05-18T02:03:57.163Z,99.99
2019-05-18T02:04:57.151Z,99.99
2019-05-18T02:05:57.127Z,99.99
2019-05-18T02:06:57.107Z,99.99
2019-05-18T02:07:57.089Z,99.99
2019-05-18T02:08:57.073Z,99.99
2019-05-18T02:09:57.051Z,99.99
2019-05-18T02:10:57.034Z,99.99
2019-05-18T02:11:57.047Z,99.99
2019-05-18T02:12:57.002Z,99.99
2019-05-18T02:13:56.976Z,99.99
2019-05-18T02:14:56.958Z,99.99
2019-05-18T02:15:56.943Z,99.99
2019-05-18T02:16:56.921Z,99.99
2019-05-18T02:17:56.902Z,99.99
2019-05-18T02:18:56.884Z,99.99
2019-05-18T02:19:56.867Z,99.99
2019-05-18T02:20:56.847Z,99.99
2019-05-18T02:21:56.834Z,99.99
2019-05-18T02:22:56.809Z,99.99
2019-05-18T02:23:56.792Z,99.99
2019-05-18T02:24:56.773Z,99.99
2019-05-18T02:25:56.753Z,99.99
2019-05-18T02:26:56.743Z,99.99
2019-05-18T02:27:56.717Z,99.99
2019-05-18T02:28:56.700Z,99.99
2019-05-18T02:29:56.679Z,99.99
2019-05-18T02:30:56.662Z,99.99
2019-05-18T02:31:56.648Z,99.99
2019-05-18T02:32:56.626Z,99.99
2019-05-18T02:33:56.607Z,99.99
2019-05-18T02:34:56.589Z,99.99
2019-05-18T02:35:56.573Z,99.99
2019-05-18T02:36:56.557Z,99.99
2019-05-18T02:37:56.531Z,99.99
2019-05-18T02:38:56.516Z,99.99
2019-05-18T02:39:56.497Z,99.99
2019-05-18T02:40:56.495Z,99.99
2019-05-18T02:41:56.460Z,99.99
2019-05-18T02:42:56.441Z,99.99
2019-05-18T02:43:56.421Z,99.99
2019-05-18T02:44:56.408Z,99.99
2019-05-18T02:45:56.381Z,99.99
2019-05-18T02:46:56.364Z,99.99
2019-05-18T02:47:56.346Z,99.99
2019-05-18T02:48:56.327Z,99.99
2019-05-18T02:49:56.315Z,99.99
2019-05-18T02:50:56.301Z,99.99
2019-05-18T02:51:56.296Z,99.99
2019-05-18T02:52:56.253Z,99.99
2019-05-18T02:53:56.234Z,99.99
2019-05-18T02:54:56.217Z,99.99
2019-05-18T02:55:56.197Z,99.99
2019-05-18T02:56:56.178Z,99.99
2019-05-18T02:57:56.159Z,99.99
2019-05-18T02:58:56.143Z,99.99
2019-05-18T02:59:56.122Z,99.99
2019-05-18T03:00:56.106Z,99.99
2019-05-18T03:01:56.087Z,99.99
2019-05-18T03:02:56.067Z,99.99
2019-05-18T03:03:56.050Z,99.99
2019-05-18T03:04:56.031Z,99.99
2019-05-18T03:05:56.010Z,99.99
2019-05-18T03:06:55.996Z,99.99
2019-05-18T03:07:55.975Z,99.99
2019-05-18T03:08:55.964Z,99.99
2019-05-18T03:09:55.938Z,99.99
2019-05-18T03:10:55.921Z,99.99
2019-05-18T03:11:55.904Z,99.99
2019-05-18T03:12:55.884Z,99.99
2019-05-18T03:13:55.864Z,99.99
2019-05-18T03:14:55.850Z,99.99
2019-05-18T03:15:55.828Z,99.99
2019-05-18T03:16:55.814Z,99.99
2019-05-18T03:17:55.790Z,99.99
2019-05-18T03:19:07.719Z,99.99
2019-05-18T03:19:55.753Z,99.99
2019-05-18T03:20:55.734Z,99.99
2019-05-18T03:21:55.723Z,99.99
2019-05-18T03:22:55.764Z,99.99
2019-05-18T03:23:55.679Z,99.99
2019-05-18T03:24:55.663Z,99.99
2019-05-18T03:25:55.644Z,99.99
2019-05-18T03:26:55.628Z,99.99
2019-05-18T03:27:55.608Z,99.99
2019-05-18T03:28:55.589Z,99.99
2019-05-18T03:29:55.570Z,99.99
2019-05-18T03:30:55.569Z,99.99
2019-05-18T03:31:55.532Z,99.99
2019-05-18T03:32:55.532Z,99.99
2019-05-18T03:33:55.495Z,99.99
2019-05-18T03:34:55.505Z,99.99
2019-05-18T03:35:55.471Z,99.99
2019-05-18T03:36:55.440Z,99.99
2019-05-18T03:37:55.422Z,99.99
2019-05-18T03:38:55.403Z,99.99
2019-05-18T03:39:55.391Z,99.99
2019-05-18T03:40:55.375Z,99.99
2019-05-18T03:41:55.353Z,99.99
2019-05-18T03:42:55.332Z,99.99
2019-05-18T03:43:55.310Z,99.99
2019-05-18T03:44:55.292Z,99.99
2019-05-18T03:45:55.274Z,99.99
2019-05-18T03:46:55.258Z,99.99
2019-05-18T03:47:55.243Z,99.99
2019-05-18T03:48:55.222Z,99.99
2019-05-18T03:49:55.201Z,99.99
2019-05-18T03:50:55.185Z,99.99
2019-05-18T03:51:55.172Z,99.99
2019-05-18T03:52:55.145Z,99.99
2019-05-18T03:53:55.129Z,99.99
2019-05-18T03:54:55.110Z,99.99
2019-05-18T03:55:55.090Z,99.99
2019-05-18T03:56:55.073Z,99.99
2019-05-18T03:57:55.052Z,99.99
2019-05-18T03:58:55.035Z,99.99
2019-05-18T03:59:55.018Z,99.99
2019-05-18T04:00:55.000Z,99.99
2019-05-18T04:01:54.979Z,99.99
2019-05-18T04:02:54.963Z,99.99
2019-05-18T04:03:54.945Z,99.99
2019-05-18T04:04:54.929Z,99.99
2019-05-18T04:05:54.908Z,99.99
2019-05-18T04:06:54.887Z,99.99
2019-05-18T04:07:54.873Z,99.99
2019-05-18T04:08:54.853Z,99.99
2019-05-18T04:09:54.832Z,99.99
2019-05-18T04:10:54.817Z,99.99
2019-05-18T04:11:54.800Z,99.99
2019-05-18T04:12:54.782Z,99.99
2019-05-18T04:13:54.766Z,99.99
2019-05-18T04:14:54.745Z,99.99
2019-05-18T04:15:54.725Z,99.99
2019-05-18T04:16:54.705Z,99.99
2019-05-18T04:17:54.684Z,99.99
2019-05-18T04:18:54.668Z,99.99
2019-05-18T04:19:54.651Z,99.99
2019-05-18T04:20:54.635Z,99.99
2019-05-18T04:21:54.613Z,99.99
2019-05-18T04:22:54.594Z,99.99
2019-05-18T04:23:54.579Z,99.99
2019-05-18T04:24:54.558Z,99.99
2019-05-18T04:25:54.538Z,99.99
2019-05-18T04:26:54.522Z,99.99
2019-05-18T04:27:54.502Z,99.99
2019-05-18T04:28:54.483Z,99.99
2019-05-18T04:29:54.465Z,99.99
2019-05-18T04:30:54.445Z,99.99
2019-05-18T04:31:54.449Z,99.99
2019-05-18T04:32:54.409Z,99.99
2019-05-18T04:33:54.424Z,99.99
2019-05-18T04:34:54.372Z,99.99
2019-05-18T04:35:54.353Z,99.99
2019-05-18T04:36:54.339Z,99.99
2019-05-18T04:37:54.317Z,99.99
2019-05-18T04:38:54.300Z,99.99
2019-05-18T04:39:54.286Z,99.99
2019-05-18T04:40:54.267Z,99.99
2019-05-18T04:41:54.257Z,99.99
2019-05-18T04:42:54.226Z,99.99
2019-05-18T04:43:54.209Z,99.99
2019-05-18T04:44:54.190Z,99.99
2019-05-18T04:45:54.171Z,99.99
2019-05-18T04:46:54.155Z,99.99
2019-05-18T04:47:54.136Z,99.99
2019-05-18T04:48:54.122Z,99.99
2019-05-18T04:50:04.506Z,99.99
2019-05-18T04:50:54.084Z,99.99
2019-05-18T04:51:54.064Z,99.99
2019-05-18T04:52:54.045Z,99.99
2019-05-18T04:53:54.025Z,99.99
2019-05-18T04:54:54.018Z,99.99
2019-05-18T04:55:53.991Z,99.99
2019-05-18T04:56:53.972Z,99.99
2019-05-18T04:57:53.956Z,99.99
2019-05-18T04:58:53.939Z,99.99
2019-05-18T04:59:53.921Z,99.99
2019-05-18T05:00:53.900Z,99.99
2019-05-18T05:01:53.885Z,99.99
2019-05-18T05:02:53.867Z,99.99
2019-05-18T05:03:53.852Z,99.99
2019-05-18T05:04:56.610Z,99.99
2019-05-18T05:05:53.813Z,99.99
2019-05-18T05:06:53.792Z,99.99
2019-05-18T05:07:53.780Z,99.99
2019-05-18T05:08:53.756Z,99.99
2019-05-18T05:09:53.740Z,99.99
2019-05-18T05:10:53.721Z,99.99
2019-05-18T05:11:53.704Z,99.99
2019-05-18T05:12:53.692Z,99.99
2019-05-18T05:13:53.669Z,99.99
2019-05-18T05:14:53.649Z,99.99
2019-05-18T05:15:53.633Z,99.99
2019-05-18T05:16:53.619Z,99.99
2019-05-18T05:17:53.596Z,99.99
2019-05-18T05:18:53.581Z,99.99
2019-05-18T05:19:53.561Z,99.99
2019-05-18T05:20:53.546Z,99.99
2019-05-18T05:21:53.536Z,99.99
2019-05-18T05:22:53.508Z,99.99
2019-05-18T05:23:53.493Z,99.99
2019-05-18T05:24:53.474Z,99.99
2019-05-18T05:25:53.458Z,99.99
2019-05-18T05:26:53.441Z,99.99
2019-05-18T05:27:53.421Z,99.99
2019-05-18T05:28:53.403Z,99.99
2019-05-18T05:29:53.385Z,99.99
2019-05-18T05:30:53.369Z,99.99
2019-05-18T05:31:53.354Z,99.99
2019-05-18T05:32:53.345Z,99.99
2019-05-18T05:33:53.316Z,99.99
2019-05-18T05:34:53.301Z,99.99
2019-05-18T05:35:53.285Z,99.99
2019-05-18T05:36:53.271Z,99.99
2019-05-18T05:37:53.251Z,99.99
2019-05-18T05:38:53.237Z,99.99
2019-05-18T05:39:53.215Z,99.99
2019-05-18T05:40:53.198Z,99.99
2019-05-18T05:41:53.181Z,99.99
2019-05-18T05:42:53.163Z,99.99
2019-05-18T05:43:53.149Z,99.99
2019-05-18T05:44:53.131Z,99.99
2019-05-18T05:45:53.118Z,99.99
2019-05-18T05:46:53.111Z,99.99
2019-05-18T05:47:53.080Z,99.99
2019-05-18T05:48:53.066Z,99.99
2019-05-18T05:49:53.058Z,99.99
2019-05-18T05:50:53.031Z,99.99
2019-05-18T05:51:53.015Z,99.99
2019-05-18T05:52:52.997Z,99.99
2019-05-18T05:53:52.985Z,99.99
2019-05-18T05:54:52.966Z,99.99
2019-05-18T05:55:52.949Z,99.99
2019-05-18T05:56:52.932Z,99.99
2019-05-18T05:57:52.917Z,99.99
2019-05-18T05:58:52.900Z,99.99
2019-05-18T05:59:52.882Z,99.99
2019-05-18T06:00:52.869Z,99.99
2019-05-18T06:01:52.850Z,99.99
2019-05-18T06:02:52.859Z,99.99
2019-05-18T06:03:52.820Z,99.99
2019-05-18T06:04:52.801Z,99.99
2019-05-18T06:05:52.789Z,99.99
2019-05-18T06:06:52.771Z,99.99
2019-05-18T06:07:52.799Z,99.99
2019-05-18T06:08:52.737Z,99.99
2019-05-18T06:09:52.740Z,99.99
2019-05-18T06:10:52.712Z,99.99
2019-05-18T06:11:52.701Z,99.99
2019-05-18T06:12:52.672Z,99.99
2019-05-18T06:13:52.657Z,99.99
2019-05-18T06:14:52.639Z,99.99
2019-05-18T06:15:52.642Z,99.99
2019-05-18T06:16:52.613Z,99.99
2019-05-18T06:17:52.591Z,99.99
2019-05-18T06:18:52.577Z,99.99
2019-05-18T06:19:52.563Z,99.99
2019-05-18T06:20:52.550Z,99.99
2019-05-18T06:21:52.584Z,99.99
2019-05-18T06:22:52.516Z,99.99
2019-05-18T06:23:52.498Z,99.99
2019-05-18T06:24:52.484Z,99.99
2019-05-18T06:25:52.469Z,99.99
2019-05-18T06:26:52.450Z,99.99
2019-05-18T06:27:52.445Z,99.99
2019-05-18T06:28:52.424Z,99.99
2019-05-18T06:29:52.425Z,99.99
2019-05-18T06:30:52.392Z,99.99
2019-05-18T06:31:52.379Z,99.99
2019-05-18T06:32:52.361Z,99.99
2019-05-18T06:33:52.343Z,99.99
2019-05-18T06:34:52.330Z,99.99
2019-05-18T06:35:52.313Z,99.99
2019-05-18T06:36:55.695Z,99.99
2019-05-18T06:37:52.288Z,99.99
2019-05-18T06:38:52.265Z,99.99
2019-05-18T06:39:52.253Z,99.99
2019-05-18T06:40:52.278Z,99.99
2019-05-18T06:41:52.217Z,99.99
2019-05-18T06:42:52.205Z,99.99
2019-05-18T06:43:52.187Z,99.99
2019-05-18T06:44:52.169Z,99.99
2019-05-18T06:45:52.156Z,99.99
2019-05-18T06:46:52.139Z,99.99
2019-05-18T06:47:52.124Z,99.99
2019-05-18T06:48:52.117Z,99.99
2019-05-18T06:49:52.094Z,99.99
2019-05-18T06:51:06.042Z,99.99
2019-05-18T06:51:52.062Z,99.99
2019-05-18T06:52:52.048Z,99.99
2019-05-18T06:53:52.039Z,99.99
2019-05-18T06:54:52.021Z,99.99
2019-05-18T06:55:52.006Z,99.99
2019-05-18T06:56:51.993Z,99.99
2019-05-18T06:57:52.005Z,99.99
2019-05-18T06:58:51.960Z,99.99
2019-05-18T06:59:51.945Z,99.99
2019-05-18T07:00:51.932Z,99.99
2019-05-18T07:01:51.914Z,99.99
2019-05-18T07:02:51.902Z,99.99
2019-05-18T07:03:51.900Z,99.99
2019-05-18T07:04:51.870Z,99.99
2019-05-18T07:05:51.855Z,99.99
2019-05-18T07:06:51.845Z,99.99
2019-05-18T07:07:51.828Z,99.99
2019-05-18T07:08:51.814Z,99.99
2019-05-18T07:09:51.798Z,99.99
2019-05-18T07:10:51.784Z,99.99
2019-05-18T07:11:51.775Z,99.99
2019-05-18T07:12:51.756Z,99.99
2019-05-18T07:13:51.742Z,99.99
2019-05-18T07:14:51.730Z,99.99
2019-05-18T07:15:51.713Z,99.99
2019-05-18T07:16:51.701Z,99.99
2019-05-18T07:17:51.683Z,99.99
2019-05-18T07:18:51.670Z,99.99
2019-05-18T07:19:51.655Z,99.99
2019-05-18T07:20:51.645Z,99.99
2019-05-18T07:21:51.628Z,99.99
2019-05-18T07:22:51.612Z,99.99
2019-05-18T07:23:51.598Z,99.99
2019-05-18T07:24:51.584Z,99.99
2019-05-18T07:25:51.571Z,99.99
2019-05-18T07:26:51.558Z,99.99
2019-05-18T07:27:51.540Z,99.99
2019-05-18T07:28:51.529Z,99.99
2019-05-18T07:29:51.518Z,99.99
2019-05-18T07:30:51.502Z,99.99
2019-05-18T07:31:51.485Z,99.99
2019-05-18T07:32:51.471Z,99.99
2019-05-18T07:33:51.462Z,99.99
2019-05-18T07:34:51.445Z,99.99
2019-05-18T07:35:51.429Z,99.99
2019-05-18T07:36:51.425Z,99.99
2019-05-18T07:37:51.402Z,99.99
2019-05-18T07:38:51.387Z,99.99
2019-05-18T07:39:51.375Z,99.99
2019-05-18T07:40:51.361Z,99.99
2019-05-18T07:41:51.352Z,99.99
2019-05-18T07:42:51.342Z,99.99
2019-05-18T07:43:51.327Z,99.99
2019-05-18T07:44:51.311Z,99.99
2019-05-18T07:45:51.303Z,99.99
2019-05-18T07:46:51.292Z,99.99
2019-05-18T07:47:51.276Z,99.99
2019-05-18T07:48:51.263Z,99.99
2019-05-18T07:49:51.256Z,99.99
2019-05-18T07:50:51.242Z,99.99
2019-05-18T07:51:51.231Z,99.99
2019-05-18T07:52:51.225Z,99.99
2019-05-18T07:53:51.211Z,99.99
2019-05-18T07:54:51.202Z,99.99
2019-05-18T07:55:51.198Z,99.44
2019-05-18T07:56:51.186Z,98.67
2019-05-18T07:57:51.178Z,97.71
2019-05-18T07:58:51.170Z,95.70
2019-05-18T07:59:51.160Z,94.93
2019-05-18T08:00:51.155Z,95.98
2019-05-18T08:01:51.142Z,96.80
2019-05-18T08:02:51.136Z,95.31
2019-05-18T08:03:51.131Z,94.01
2019-05-18T08:04:51.122Z,92.62
2019-05-18T08:05:51.122Z,91.52
2019-05-18T08:06:51.120Z,91.52
2019-05-18T08:07:51.113Z,91.80
2019-05-18T08:08:51.101Z,91.08
2019-05-18T08:09:51.106Z,90.84
2019-05-18T08:10:51.095Z,91.61
2019-05-18T08:11:51.094Z,91.95
2019-05-18T08:12:51.070Z,91.33
2019-05-18T08:13:51.058Z,91.71
2019-05-18T08:14:51.049Z,91.95
2019-05-18T08:15:51.041Z,90.26
2019-05-18T08:16:51.035Z,89.59
2019-05-18T08:17:51.030Z,89.78
2019-05-18T08:18:51.025Z,89.40
2019-05-18T08:19:51.018Z,89.69
2019-05-18T08:20:51.013Z,89.30
2019-05-18T08:21:53.490Z,89.25
2019-05-18T08:22:51.000Z,88.48
2019-05-18T08:23:50.993Z,87.13
2019-05-18T08:24:50.989Z,87.33
2019-05-18T08:25:50.982Z,86.94
2019-05-18T08:26:50.978Z,87.13
2019-05-18T08:27:50.971Z,87.57
2019-05-18T08:28:50.964Z,87.38
2019-05-18T08:29:50.958Z,89.21
2019-05-18T08:30:50.953Z,90.94
2019-05-18T08:31:50.946Z,90.26
2019-05-18T08:32:50.943Z,89.15
2019-05-18T08:33:50.931Z,88.15
2019-05-18T08:34:50.922Z,88.34
2019-05-18T08:35:50.942Z,89.69
2019-05-18T08:36:50.908Z,89.74
2019-05-18T08:37:50.903Z,89.40
2019-05-18T08:38:50.894Z,89.21
2019-05-18T08:39:50.890Z,89.50
2019-05-18T08:40:50.882Z,89.50
2019-05-18T08:41:50.872Z,90.89
2019-05-18T08:42:50.862Z,90.03
2019-05-18T08:43:50.887Z,90.31
2019-05-18T08:44:50.846Z,91.95
2019-05-18T08:45:50.865Z,91.42
2019-05-18T08:46:50.826Z,91.81
2019-05-18T08:47:50.818Z,93.05
2019-05-18T08:48:50.810Z,93.05
2019-05-18T08:49:50.796Z,93.63
2019-05-18T08:50:50.789Z,94.31
2019-05-18T08:51:50.781Z,93.73
2019-05-18T08:52:50.767Z,93.49
2019-05-18T08:53:50.759Z,93.87
2019-05-18T08:54:50.748Z,94.35
2019-05-18T08:55:50.736Z,94.07
2019-05-18T08:56:50.723Z,94.64
2019-05-18T08:57:50.711Z,95.26
2019-05-18T08:58:50.706Z,94.98
2019-05-18T08:59:50.689Z,95.55
2019-05-18T09:00:50.681Z,96.18
2019-05-18T09:01:50.666Z,95.98
2019-05-18T09:02:50.661Z,96.94
2019-05-18T09:03:50.646Z,97.33
2019-05-18T09:04:50.635Z,97.42
2019-05-18T09:05:50.625Z,98.19
2019-05-18T09:06:50.608Z,99.15
2019-05-18T09:07:50.597Z,98.67
2019-05-18T09:08:50.584Z,98.67
2019-05-18T09:09:50.574Z,97.90
2019-05-18T09:10:50.561Z,98.00
2019-05-18T09:11:50.561Z,98.67
2019-05-18T09:12:50.533Z,98.10
2019-05-18T09:13:50.521Z,98.14
2019-05-18T09:14:50.582Z,96.89
2019-05-18T09:15:50.507Z,96.99
2019-05-18T09:16:50.485Z,97.19
2019-05-18T09:17:50.475Z,96.51
2019-05-18T09:18:50.465Z,96.37
2019-05-18T09:19:50.454Z,95.84
2019-05-18T09:20:50.439Z,95.65
2019-05-18T09:21:50.430Z,94.59
2019-05-18T09:22:50.419Z,94.78
2019-05-18T09:23:50.408Z,94.26
2019-05-18T09:24:50.429Z,93.01
2019-05-18T09:25:50.392Z,91.66
2019-05-18T09:26:50.377Z,91.66
2019-05-18T09:27:50.371Z,91.95
2019-05-18T09:28:50.362Z,92.29
2019-05-18T09:29:50.348Z,91.46
2019-05-18T09:30:50.341Z,90.73
2019-05-18T09:31:50.334Z,87.85
2019-05-18T09:32:50.322Z,87.85
2019-05-18T09:33:50.318Z,87.85
2019-05-18T09:34:50.304Z,87.95
2019-05-18T09:35:50.299Z,87.71
2019-05-18T09:36:50.293Z,87.81
2019-05-18T09:37:50.289Z,88.77
2019-05-18T09:38:50.268Z,89.10
2019-05-18T09:39:50.264Z,88.62
2019-05-18T09:40:50.252Z,88.04
2019-05-18T09:41:50.240Z,88.91
2019-05-18T09:42:50.232Z,88.91
2019-05-18T09:43:50.222Z,87.85
2019-05-18T09:44:50.216Z,88.19
2019-05-18T09:45:50.203Z,89.68
2019-05-18T09:46:50.195Z,87.66
2019-05-18T09:47:50.191Z,88.04
2019-05-18T09:48:50.181Z,89.09
2019-05-18T09:49:50.170Z,86.21
2019-05-18T09:50:50.163Z,86.07
2019-05-18T09:51:50.156Z,84.91
2019-05-18T09:52:50.153Z,84.86
2019-05-18T09:53:51.844Z,85.05
2019-05-18T09:54:50.134Z,85.43
2019-05-18T09:55:50.126Z,85.34
2019-05-18T09:56:50.119Z,84.61
2019-05-18T09:57:50.111Z,84.99
2019-05-18T09:58:50.105Z,83.30
2019-05-18T09:59:50.100Z,82.34
2019-05-18T10:00:50.091Z,82.62
2019-05-18T10:01:50.084Z,81.09
2019-05-18T10:02:50.099Z,81.51
2019-05-18T10:03:50.069Z,80.35
2019-05-18T10:04:50.168Z,80.16
2019-05-18T10:05:50.056Z,80.54
2019-05-18T10:06:50.048Z,80.93
2019-05-18T10:07:50.041Z,81.16
2019-05-18T10:08:50.038Z,78.21
2019-05-18T10:09:50.029Z,76.70
2019-05-18T10:10:50.024Z,74.62
2019-05-18T10:11:50.020Z,73.74
2019-05-18T10:12:50.027Z,75.13
2019-05-18T10:13:50.009Z,74.59
2019-05-18T10:14:50.007Z,74.36
2019-05-18T10:15:49.999Z,74.55
2019-05-18T10:16:49.993Z,74.94
2019-05-18T10:17:49.989Z,74.17
2019-05-18T10:18:49.982Z,73.78
2019-05-18T10:19:49.979Z,75.56
2019-05-18T10:20:49.973Z,73.82
2019-05-18T10:21:49.975Z,72.98
2019-05-18T10:22:55.846Z,72.60
2019-05-18T10:23:49.962Z,72.30
2019-05-18T10:24:49.959Z,71.53
2019-05-18T10:25:49.953Z,72.21
2019-05-18T10:26:49.950Z,71.44
2019-05-18T10:27:49.993Z,69.89
2019-05-18T10:28:49.942Z,69.59
2019-05-18T10:29:49.983Z,70.47
2019-05-18T10:30:49.938Z,70.70
2019-05-18T10:31:49.928Z,69.34
2019-05-18T10:32:49.929Z,68.76
2019-05-18T10:33:49.937Z,68.47
2019-05-18T10:34:49.917Z,67.79
2019-05-18T10:35:49.913Z,67.69
2019-05-18T10:36:49.914Z,67.98
2019-05-18T10:37:49.909Z,68.37
2019-05-18T10:38:49.910Z,69.05
2019-05-18T10:39:49.898Z,68.85
2019-05-18T10:40:49.898Z,68.76
2019-05-18T10:41:49.893Z,68.76
2019-05-18T10:42:49.889Z,68.05
2019-05-18T10:43:49.884Z,68.18
2019-05-18T10:44:49.876Z,67.34
2019-05-18T10:45:49.873Z,66.85
2019-05-18T10:46:49.867Z,66.95
2019-05-18T10:47:49.866Z,66.75
2019-05-18T10:48:49.866Z,66.89
2019-05-18T10:49:49.859Z,66.75
2019-05-18T10:50:49.878Z,66.72
2019-05-18T10:51:49.853Z,67.11
2019-05-18T10:52:49.842Z,67.66
2019-05-18T10:53:49.839Z,69.85
2019-05-18T10:54:49.835Z,69.92
2019-05-18T10:55:49.848Z,68.85
2019-05-18T10:56:49.836Z,69.08
2019-05-18T10:57:49.825Z,68.21
2019-05-18T10:58:49.818Z,68.24
2019-05-18T10:59:49.809Z,67.98
2019-05-18T11:00:49.862Z,67.82
2019-05-18T11:01:49.805Z,67.44
2019-05-18T11:02:49.798Z,66.75
2019-05-18T11:03:49.791Z,66.05
2019-05-18T11:04:49.831Z,66.75
2019-05-18T11:05:49.802Z,67.85
2019-05-18T11:06:49.797Z,68.18
2019-05-18T11:07:49.775Z,67.88
2019-05-18T11:08:49.766Z,67.34
2019-05-18T11:09:49.768Z,66.75
2019-05-18T11:10:49.756Z,66.47
2019-05-18T11:11:49.749Z,66.85
2019-05-18T11:12:49.746Z,66.11
2019-05-18T11:13:49.757Z,66.69
2019-05-18T11:14:49.737Z,64.75
2019-05-18T11:15:49.772Z,64.78
2019-05-18T11:16:49.731Z,64.62
2019-05-18T11:17:49.727Z,64.01
2019-05-18T11:18:49.722Z,63.23
2019-05-18T11:19:49.726Z,61.98
2019-05-18T11:20:49.715Z,62.88
2019-05-18T11:21:49.731Z,62.10
2019-05-18T11:22:49.706Z,62.04
2019-05-18T11:23:49.709Z,61.07
2019-05-18T11:24:49.705Z,60.87
2019-05-18T11:25:49.697Z,60.87
2019-05-18T11:26:49.697Z,60.94
2019-05-18T11:27:49.709Z,60.68
2019-05-18T11:28:49.696Z,60.28
2019-05-18T11:29:49.720Z,60.68
2019-05-18T11:30:49.685Z,59.34
2019-05-18T11:31:49.678Z,58.31
2019-05-18T11:32:49.677Z,57.82
2019-05-18T11:33:49.678Z,58.31
2019-05-18T11:34:49.684Z,59.28
2019-05-18T11:35:49.675Z,59.44
2019-05-18T11:36:49.716Z,60.61
2019-05-18T11:37:49.660Z,59.25
2019-05-18T11:38:49.879Z,58.86
2019-05-18T11:39:49.656Z,57.72
2019-05-18T11:40:49.664Z,57.89
2019-05-18T11:41:49.657Z,58.08
2019-05-18T11:42:49.652Z,57.86
2019-05-18T11:43:49.646Z,58.80
2019-05-18T11:44:49.644Z,59.16
2019-05-18T11:45:49.643Z,58.39
2019-05-18T11:46:49.633Z,58.31
2019-05-18T11:47:49.639Z,57.93
2019-05-18T11:48:49.861Z,55.67
2019-05-18T11:49:49.633Z,55.47
2019-05-18T11:50:49.621Z,56.28
2019-05-18T11:51:49.664Z,57.80
2019-05-18T11:52:49.623Z,58.67
2019-05-18T11:53:57.796Z,58.58
2019-05-18T11:54:49.605Z,59.45
2019-05-18T11:55:49.598Z,60.81
2019-05-18T11:56:49.607Z,59.71
2019-05-18T11:57:49.588Z,60.88
2019-05-18T11:58:49.597Z,60.58
2019-05-18T11:59:49.593Z,59.59
2019-05-18T12:00:49.582Z,58.42
2019-05-18T12:01:49.571Z,58.81
2019-05-18T12:02:49.574Z,59.20
2019-05-18T12:03:49.562Z,59.39
2019-05-18T12:04:49.565Z,60.17
2019-05-18T12:05:49.582Z,60.24
2019-05-18T12:06:49.600Z,60.33
2019-05-18T12:07:49.548Z,60.46
2019-05-18T12:08:49.636Z,60.97
2019-05-18T12:09:49.553Z,60.78
2019-05-18T12:10:49.531Z,60.58
2019-05-18T12:11:49.525Z,61.04
2019-05-18T12:12:49.526Z,61.17
2019-05-18T12:13:49.529Z,61.46
2019-05-18T12:14:49.512Z,61.17
2019-05-18T12:15:49.555Z,60.30
2019-05-18T12:16:49.532Z,60.39
2019-05-18T12:17:49.497Z,60.39
2019-05-18T12:18:49.491Z,60.65
2019-05-18T12:19:49.484Z,60.58
2019-05-18T12:20:49.479Z,59.71
2019-05-18T12:21:49.484Z,59.39
2019-05-18T12:22:49.493Z,60.27
2019-05-18T12:23:49.462Z,60.36
2019-05-18T12:24:49.457Z,60.55
2019-05-18T12:25:50.838Z,61.69
2019-05-18T12:26:49.473Z,61.79
2019-05-18T12:27:49.708Z,61.40
2019-05-18T12:28:49.436Z,61.79
2019-05-18T12:29:49.425Z,61.40
2019-05-18T12:30:49.421Z,61.40
2019-05-18T12:31:49.412Z,61.40
2019-05-18T12:32:49.405Z,60.82
2019-05-18T12:33:49.398Z,60.62
2019-05-18T12:34:49.392Z,60.78
2019-05-18T12:35:49.385Z,60.78
2019-05-18T12:36:49.384Z,60.88
2019-05-18T12:37:49.372Z,60.85
2019-05-18T12:38:49.365Z,60.85
2019-05-18T12:39:49.359Z,61.33
2019-05-18T12:40:49.348Z,61.92
2019-05-18T12:41:49.341Z,62.30
2019-05-18T12:42:49.336Z,62.11
2019-05-18T12:43:49.327Z,62.88
2019-05-18T12:44:49.333Z,64.11
2019-05-18T12:45:49.313Z,64.50
2019-05-18T12:46:49.312Z,65.63
2019-05-18T12:47:49.299Z,66.20
2019-05-18T12:48:49.294Z,67.85
2019-05-18T12:49:49.279Z,66.69
2019-05-18T12:50:49.271Z,64.85
2019-05-18T12:51:49.266Z,64.37
2019-05-18T12:52:49.255Z,64.24